createdAt,value
2018-04-01T00:00:50.136Z,0
2018-04-01T00:01:51.490Z,0
2018-04-01T00:02:52.835Z,0
2018-04-01T00:03:55.110Z,0
2018-04-01T00:04:56.461Z,0
2018-04-01T00:05:57.817Z,0
2018-04-01T00:06:59.165Z,0
2018-04-01T00:08:00.511Z,0
2018-04-01T00:09:01.863Z,0
2018-04-01T00:10:03.215Z,0
2018-04-01T00:11:04.566Z,0
2018-04-01T00:12:05.920Z,0
2018-04-01T00:13:07.973Z,0
2018-04-01T00:14:09.322Z,0
2018-04-01T00:15:10.671Z,0
2018-04-01T00:16:12.014Z,0
2018-04-01T00:17:13.359Z,0
2018-04-01T00:18:14.719Z,0
2018-04-01T00:19:16.062Z,0
2018-04-01T00:20:17.415Z,0
2018-04-01T00:21:18.768Z,0
2018-04-01T00:22:20.121Z,0
2018-04-01T00:23:21.475Z,0
2018-04-01T00:24:22.830Z,0
2018-04-01T00:25:24.249Z,0
2018-04-01T00:26:25.546Z,0
2018-04-01T00:27:26.899Z,0
2018-04-01T00:28:28.256Z,0
2018-04-01T00:29:29.602Z,0
2018-04-01T00:30:30.948Z,0
2018-04-01T00:31:33.085Z,0
2018-04-01T00:32:34.440Z,0
2018-04-01T00:33:35.792Z,0
2018-04-01T00:34:37.140Z,0
2018-04-01T00:35:38.489Z,0
2018-04-01T00:36:39.844Z,0
2018-04-01T00:37:41.194Z,0
2018-04-01T00:38:42.544Z,0
2018-04-01T00:39:43.890Z,0
2018-04-01T00:40:45.253Z,0
2018-04-01T00:41:46.604Z,0
2018-04-01T00:42:47.959Z,0
2018-04-01T00:43:49.312Z,0
2018-04-01T00:44:50.665Z,0
2018-04-01T00:45:52.027Z,0
2018-04-01T00:46:53.364Z,0
2018-04-01T00:47:54.719Z,0
2018-04-01T00:48:56.070Z,0
2018-04-01T00:49:57.427Z,0
2018-04-01T00:50:58.792Z,0
2018-04-01T00:52:00.144Z,0
2018-04-01T00:53:01.507Z,0
2018-04-01T00:54:02.881Z,0
2018-04-01T00:55:04.237Z,0
2018-04-01T00:56:05.586Z,0
2018-04-01T00:57:06.939Z,0
2018-04-01T00:58:08.301Z,0
2018-04-01T00:59:09.654Z,0
2018-04-01T01:00:11.003Z,0
2018-04-01T01:01:12.364Z,0
2018-04-01T01:02:13.716Z,0
2018-04-01T01:03:15.061Z,0
2018-04-01T01:04:16.418Z,0
2018-04-01T01:05:17.765Z,0
2018-04-01T01:06:19.111Z,0
2018-04-01T01:07:20.468Z,0
2018-04-01T01:08:21.828Z,0
2018-04-01T01:09:23.178Z,0
2018-04-01T01:10:24.550Z,0
2018-04-01T01:11:25.893Z,0
2018-04-01T01:12:27.247Z,0
2018-04-01T01:13:28.594Z,0
2018-04-01T01:14:29.953Z,0
2018-04-01T01:15:31.305Z,0
2018-04-01T01:16:32.671Z,0
2018-04-01T01:17:34.025Z,0
2018-04-01T01:18:35.368Z,0
2018-04-01T01:19:36.710Z,0
2018-04-01T01:20:38.060Z,0
2018-04-01T01:21:39.407Z,0
2018-04-01T01:22:40.758Z,0
2018-04-01T01:23:42.117Z,0
2018-04-01T01:24:43.475Z,0
2018-04-01T01:25:44.826Z,0
2018-04-01T01:26:46.174Z,0
2018-04-01T01:27:47.522Z,0
2018-04-01T01:28:48.909Z,0
2018-04-01T01:29:50.273Z,0
2018-04-01T01:30:51.643Z,0
2018-04-01T01:31:52.964Z,0
2018-04-01T01:32:54.315Z,0
2018-04-01T01:33:55.662Z,0
2018-04-01T01:34:57.016Z,0
2018-04-01T01:35:58.361Z,0
2018-04-01T01:36:59.720Z,0
2018-04-01T01:38:01.069Z,0
2018-04-01T01:39:02.420Z,0
2018-04-01T01:40:03.771Z,0
2018-04-01T01:41:05.119Z,0
2018-04-01T01:42:06.477Z,0
2018-04-01T01:43:07.826Z,0
2018-04-01T01:44:09.177Z,0
2018-04-01T01:45:10.532Z,0
2018-04-01T01:46:11.876Z,0
2018-04-01T01:47:13.225Z,0
2018-04-01T01:48:14.581Z,0
2018-04-01T01:49:15.937Z,0
2018-04-01T01:50:17.283Z,0
2018-04-01T01:51:18.632Z,0
2018-04-01T01:52:19.985Z,0
2018-04-01T01:53:21.357Z,0
2018-04-01T01:54:22.701Z,0
2018-04-01T01:55:24.945Z,0
2018-04-01T01:56:26.298Z,0
2018-04-01T01:57:27.649Z,0
2018-04-01T01:58:29.001Z,0
2018-04-01T01:59:30.352Z,0
2018-04-01T02:00:31.699Z,0
2018-04-01T02:01:33.056Z,0
2018-04-01T02:03:02.498Z,0
2018-04-01T02:04:02.857Z,0
2018-04-01T02:05:04.209Z,0
2018-04-01T02:06:05.558Z,0
2018-04-01T02:07:06.906Z,0
2018-04-01T02:08:08.259Z,0
2018-04-01T02:09:09.606Z,0
2018-04-01T02:10:10.952Z,0
2018-04-01T02:11:12.309Z,0
2018-04-01T02:12:13.652Z,0
2018-04-01T02:13:15.006Z,0
2018-04-01T02:14:16.352Z,0
2018-04-01T02:15:17.696Z,0
2018-04-01T02:16:19.046Z,0
2018-04-01T02:17:20.348Z,0
2018-04-01T02:18:21.697Z,0
2018-04-01T02:19:23.054Z,0
2018-04-01T02:20:24.403Z,0
2018-04-01T02:21:25.750Z,0
2018-04-01T02:22:27.103Z,0
2018-04-01T02:23:28.453Z,0
2018-04-01T02:24:29.855Z,0
2018-04-01T02:25:31.149Z,0
2018-04-01T02:26:32.500Z,0
2018-04-01T02:27:33.852Z,0
2018-04-01T02:28:35.209Z,0
2018-04-01T02:29:36.549Z,0
2018-04-01T02:30:37.904Z,0
2018-04-01T02:31:39.308Z,0
2018-04-01T02:32:40.595Z,0
2018-04-01T02:33:41.954Z,0
2018-04-01T02:34:43.320Z,0
2018-04-01T02:35:44.671Z,0
2018-04-01T02:36:46.019Z,0
2018-04-01T02:37:47.364Z,0
2018-04-01T02:38:48.718Z,0
2018-04-01T02:39:50.064Z,0
2018-04-01T02:40:51.411Z,0
2018-04-01T02:41:52.752Z,0
2018-04-01T02:42:54.113Z,0
2018-04-01T02:43:55.471Z,0
2018-04-01T02:44:56.818Z,0
2018-04-01T02:45:58.158Z,0
2018-04-01T02:46:59.506Z,0
2018-04-01T02:48:00.864Z,0
2018-04-01T02:49:02.215Z,0
2018-04-01T02:50:03.518Z,0
2018-04-01T02:51:04.870Z,0
2018-04-01T02:52:06.215Z,0
2018-04-01T02:53:07.565Z,0
2018-04-01T02:54:08.918Z,0
2018-04-01T02:55:10.265Z,0
2018-04-01T02:56:11.610Z,0
2018-04-01T02:57:12.959Z,0
2018-04-01T02:58:14.311Z,0
2018-04-01T02:59:15.648Z,0
2018-04-01T03:00:16.996Z,0
2018-04-01T03:01:18.346Z,0
2018-04-01T03:02:19.694Z,0
2018-04-01T03:03:21.050Z,0
2018-04-01T03:04:22.408Z,0
2018-04-01T03:05:24.246Z,0
2018-04-01T03:06:25.586Z,0
2018-04-01T03:07:26.939Z,0
2018-04-01T03:08:28.292Z,0
2018-04-01T03:09:29.634Z,0
2018-04-01T03:10:30.987Z,0
2018-04-01T03:11:32.347Z,0
2018-04-01T03:12:33.690Z,0
2018-04-01T03:13:35.040Z,0
2018-04-01T03:14:36.384Z,0
2018-04-01T03:15:37.740Z,0
2018-04-01T03:16:39.096Z,0
2018-04-01T03:17:40.440Z,0
2018-04-01T03:18:41.789Z,0
2018-04-01T03:19:43.140Z,0
2018-04-01T03:20:44.490Z,0
2018-04-01T03:21:45.834Z,0
2018-04-01T03:22:47.180Z,0
2018-04-01T03:23:48.536Z,0
2018-04-01T03:24:49.886Z,0
2018-04-01T03:25:51.236Z,0
2018-04-01T03:26:52.587Z,0
2018-04-01T03:27:53.937Z,0
2018-04-01T03:28:55.289Z,0
2018-04-01T03:29:56.639Z,0
2018-04-01T03:30:57.990Z,0
2018-04-01T03:31:59.340Z,0
2018-04-01T03:33:00.691Z,0
2018-04-01T03:34:02.042Z,0
2018-04-01T03:35:03.385Z,0
2018-04-01T03:36:04.736Z,0
2018-04-01T03:37:06.083Z,0
2018-04-01T03:38:07.433Z,0
2018-04-01T03:39:08.777Z,0
2018-04-01T03:40:10.130Z,0
2018-04-01T03:41:11.484Z,0
2018-04-01T03:42:12.841Z,0
2018-04-01T03:43:14.190Z,0
2018-04-01T03:44:15.540Z,0
2018-04-01T03:45:16.898Z,0
2018-04-01T03:46:19.646Z,0
2018-04-01T03:47:21.842Z,0
2018-04-01T03:48:23.193Z,0
2018-04-01T03:49:26.866Z,0
2018-04-01T03:50:28.215Z,0
2018-04-01T03:51:29.567Z,0
2018-04-01T03:52:30.920Z,0
2018-04-01T03:53:32.268Z,0
2018-04-01T03:54:33.626Z,0
2018-04-01T03:55:34.975Z,0
2018-04-01T03:56:36.321Z,0
2018-04-01T03:57:37.670Z,0
2018-04-01T03:58:39.022Z,0
2018-04-01T03:59:40.374Z,0
2018-04-01T04:00:41.721Z,0
2018-04-01T04:01:43.067Z,0
2018-04-01T04:02:44.410Z,0
2018-04-01T04:03:45.763Z,0
2018-04-01T04:04:47.109Z,0
2018-04-01T04:05:48.457Z,0
2018-04-01T04:06:49.800Z,0
2018-04-01T04:07:51.151Z,0
2018-04-01T04:08:52.505Z,0
2018-04-01T04:09:53.854Z,0
2018-04-01T04:10:55.204Z,0
2018-04-01T04:11:56.568Z,0
2018-04-01T04:12:57.921Z,0
2018-04-01T04:13:59.274Z,0
2018-04-01T04:15:00.617Z,0
2018-04-01T04:16:01.978Z,0
2018-04-01T04:17:03.324Z,0
2018-04-01T04:18:04.668Z,0
2018-04-01T04:19:06.017Z,0
2018-04-01T04:20:07.369Z,0
2018-04-01T04:21:08.718Z,0
2018-04-01T04:22:10.070Z,0
2018-04-01T04:23:11.424Z,0
2018-04-01T04:24:12.777Z,0
2018-04-01T04:25:14.125Z,0
2018-04-01T04:26:15.474Z,0
2018-04-01T04:27:16.822Z,0
2018-04-01T04:28:18.174Z,0
2018-04-01T04:29:19.529Z,0
2018-04-01T04:30:20.873Z,0
2018-04-01T04:31:22.217Z,0
2018-04-01T04:32:23.564Z,0
2018-04-01T04:33:24.915Z,0
2018-04-01T04:34:26.265Z,0
2018-04-01T04:35:27.619Z,0
2018-04-01T04:36:28.968Z,0
2018-04-01T04:37:30.320Z,0
2018-04-01T04:38:31.664Z,0
2018-04-01T04:39:33.016Z,4
2018-04-01T04:40:34.374Z,4
2018-04-01T04:41:35.998Z,0
2018-04-01T04:42:37.350Z,4
2018-04-01T04:43:38.700Z,4
2018-04-01T04:44:40.051Z,4
2018-04-01T04:45:41.393Z,8
2018-04-01T04:46:42.740Z,8
2018-04-01T04:47:44.089Z,12
2018-04-01T04:48:45.443Z,16
2018-04-01T04:49:46.809Z,12
2018-04-01T04:50:48.156Z,16
2018-04-01T04:51:49.515Z,20
2018-04-01T04:52:50.856Z,20
2018-04-01T04:53:52.214Z,20
2018-04-01T04:54:53.571Z,24
2018-04-01T04:55:54.913Z,24
2018-04-01T04:56:56.268Z,28
2018-04-01T04:57:57.622Z,32
2018-04-01T04:58:58.971Z,40
2018-04-01T05:00:00.322Z,44
2018-04-01T05:01:01.667Z,48
2018-04-01T05:02:03.023Z,44
2018-04-01T05:03:04.376Z,48
2018-04-01T05:04:05.724Z,52
2018-04-01T05:05:07.076Z,60
2018-04-01T05:06:08.433Z,72
2018-04-01T05:07:09.775Z,96
2018-04-01T05:08:11.127Z,124
2018-04-01T05:09:12.480Z,148
2018-04-01T05:10:13.838Z,180
2018-04-01T05:11:15.194Z,200
2018-04-01T05:12:16.543Z,204
2018-04-01T05:13:17.891Z,260
2018-04-01T05:14:19.240Z,348
2018-04-01T05:15:20.594Z,472
2018-04-01T05:16:21.947Z,532
2018-04-01T05:17:23.298Z,616
2018-04-01T05:18:24.659Z,616
2018-04-01T05:19:26.016Z,656
2018-04-01T05:20:27.366Z,740
2018-04-01T05:21:28.719Z,772
2018-04-01T05:22:30.069Z,820
2018-04-01T05:23:31.426Z,852
2018-04-01T05:24:32.773Z,912
2018-04-01T05:25:34.131Z,960
2018-04-01T05:26:35.485Z,1032
2018-04-01T05:27:36.840Z,1060
2018-04-01T05:28:38.215Z,1144
2018-04-01T05:29:39.569Z,1224
2018-04-01T05:30:40.921Z,1344
2018-04-01T05:31:42.282Z,1592
2018-04-01T05:32:43.637Z,1768
2018-04-01T05:33:44.992Z,1908
2018-04-01T05:34:46.342Z,2108
2018-04-01T05:35:47.694Z,2420
2018-04-01T05:36:49.048Z,2796
2018-04-01T05:37:50.397Z,2984
2018-04-01T05:38:51.746Z,2976
2018-04-01T05:39:53.099Z,3224
2018-04-01T05:40:54.454Z,3780
2018-04-01T05:41:55.812Z,3656
2018-04-01T05:42:57.158Z,2696
2018-04-01T05:43:58.512Z,2088
2018-04-01T05:44:59.858Z,2000
2018-04-01T05:46:01.215Z,1864
2018-04-01T05:47:02.571Z,1672
2018-04-01T05:48:03.927Z,1512
2018-04-01T05:49:05.281Z,1616
2018-04-01T05:50:06.633Z,2140
2018-04-01T05:51:07.994Z,2832
2018-04-01T05:52:09.349Z,3596
2018-04-01T05:53:10.704Z,4544
2018-04-01T05:54:12.066Z,5408
2018-04-01T05:55:13.422Z,6036
2018-04-01T05:56:14.781Z,6056
2018-04-01T05:57:16.128Z,5864
2018-04-01T05:58:17.485Z,5872
2018-04-01T05:59:18.831Z,6216
2018-04-01T06:00:20.192Z,6852
2018-04-01T06:01:21.681Z,6940
2018-04-01T06:02:23.041Z,6860
2018-04-01T06:03:24.394Z,6736
2018-04-01T06:04:25.752Z,5604
2018-04-01T06:05:27.245Z,5224
2018-04-01T06:06:28.607Z,5148
2018-04-01T06:07:29.963Z,5480
2018-04-01T06:08:31.335Z,5724
2018-04-01T06:09:32.695Z,5588
2018-04-01T06:10:34.073Z,5336
2018-04-01T06:11:36.276Z,4972
2018-04-01T06:12:37.640Z,4472
2018-04-01T06:13:38.997Z,3924
2018-04-01T06:14:40.443Z,3464
2018-04-01T06:15:41.753Z,3284
2018-04-01T06:16:43.140Z,3028
2018-04-01T06:17:44.546Z,2844
2018-04-01T06:18:45.912Z,3188
2018-04-01T06:19:47.263Z,4212
2018-04-01T06:20:48.612Z,5744
2018-04-01T06:21:49.984Z,6220
2018-04-01T06:22:51.343Z,6748
2018-04-01T06:23:52.699Z,6356
2018-04-01T06:24:54.051Z,6384
2018-04-01T06:25:55.410Z,6524
2018-04-01T06:26:56.786Z,6832
2018-04-01T06:27:58.139Z,7004
2018-04-01T06:28:59.494Z,6680
2018-04-01T06:30:00.865Z,6432
2018-04-01T06:31:02.217Z,6868
2018-04-01T06:32:03.579Z,6796
2018-04-01T06:33:04.933Z,6372
2018-04-01T06:34:06.293Z,5984
2018-04-01T06:35:07.651Z,6368
2018-04-01T06:36:08.994Z,5892
2018-04-01T06:37:10.356Z,4884
2018-04-01T06:38:11.714Z,4440
2018-04-01T06:39:13.067Z,4488
2018-04-01T06:40:14.439Z,4864
2018-04-01T06:41:15.799Z,4724
2018-04-01T06:42:17.150Z,5012
2018-04-01T06:43:18.511Z,6284
2018-04-01T06:44:19.868Z,7736
2018-04-01T06:45:21.228Z,9208
2018-04-01T06:46:22.579Z,10712
2018-04-01T06:47:23.937Z,11872
2018-04-01T06:48:25.295Z,13308
2018-04-01T06:49:26.667Z,13180
2018-04-01T06:50:28.415Z,13956
2018-04-01T06:51:29.792Z,15220
2018-04-01T06:52:31.149Z,16028
2018-04-01T06:53:32.507Z,17696
2018-04-01T06:54:33.869Z,17280
2018-04-01T06:55:35.222Z,16188
2018-04-01T06:56:36.581Z,15020
2018-04-01T06:57:37.937Z,12276
2018-04-01T06:58:39.291Z,11596
2018-04-01T06:59:40.654Z,8144
2018-04-01T07:00:42.017Z,7308
2018-04-01T07:01:43.366Z,6348
2018-04-01T07:02:44.722Z,5324
2018-04-01T07:03:46.081Z,5168
2018-04-01T07:04:47.444Z,4848
2018-04-01T07:05:48.800Z,4364
2018-04-01T07:06:50.158Z,4464
2018-04-01T07:07:51.521Z,4776
2018-04-01T07:08:52.869Z,4680
2018-04-01T07:09:54.225Z,3972
2018-04-01T07:10:55.580Z,3720
2018-04-01T07:11:56.938Z,4824
2018-04-01T07:12:58.296Z,6248
2018-04-01T07:13:59.654Z,7736
2018-04-01T07:15:01.018Z,8636
2018-04-01T07:16:02.366Z,8876
2018-04-01T07:17:03.724Z,8620
2018-04-01T07:18:05.077Z,8376
2018-04-01T07:19:06.447Z,8528
2018-04-01T07:20:07.793Z,8116
2018-04-01T07:21:09.142Z,7556
2018-04-01T07:22:10.505Z,8704
2018-04-01T07:23:11.861Z,9396
2018-04-01T07:24:13.212Z,7720
2018-04-01T07:25:14.572Z,5760
2018-04-01T07:26:15.934Z,5648
2018-04-01T07:27:17.305Z,5960
2018-04-01T07:28:18.652Z,5920
2018-04-01T07:29:20.002Z,6796
2018-04-01T07:30:21.365Z,7160
2018-04-01T07:31:22.723Z,5984
2018-04-01T07:32:24.075Z,5232
2018-04-01T07:33:25.436Z,5140
2018-04-01T07:34:26.795Z,6096
2018-04-01T07:35:28.146Z,8908
2018-04-01T07:36:29.505Z,11948
2018-04-01T07:37:30.863Z,13320
2018-04-01T07:38:32.211Z,12312
2018-04-01T07:39:33.559Z,11468
2018-04-01T07:40:34.927Z,11048
2018-04-01T07:41:36.430Z,12216
2018-04-01T07:42:37.789Z,12908
2018-04-01T07:43:39.149Z,12552
2018-04-01T07:44:40.514Z,11776
2018-04-01T07:45:41.874Z,10672
2018-04-01T07:46:43.222Z,9556
2018-04-01T07:47:44.585Z,8736
2018-04-01T07:48:45.938Z,8140
2018-04-01T07:49:47.327Z,7532
2018-04-01T07:50:48.731Z,6892
2018-04-01T07:51:50.096Z,6928
2018-04-01T07:52:51.445Z,7396
2018-04-01T07:53:52.802Z,8000
2018-04-01T07:54:54.167Z,8748
2018-04-01T07:55:55.525Z,10552
2018-04-01T07:56:56.889Z,12520
2018-04-01T07:57:58.240Z,14032
2018-04-01T07:58:59.597Z,14892
2018-04-01T08:00:00.982Z,16340
2018-04-01T08:01:02.335Z,19232
2018-04-01T08:02:03.693Z,21600
2018-04-01T08:03:05.055Z,22944
2018-04-01T08:04:06.420Z,23712
2018-04-01T08:05:07.770Z,23936
2018-04-01T08:06:09.135Z,23616
2018-04-01T08:07:10.483Z,25248
2018-04-01T08:08:11.844Z,28416
2018-04-01T08:09:13.200Z,32288
2018-04-01T08:10:14.562Z,28352
2018-04-01T08:11:15.956Z,26944
2018-04-01T08:12:17.330Z,25440
2018-04-01T08:13:18.690Z,25152
2018-04-01T08:14:20.048Z,25344
2018-04-01T08:15:21.409Z,23840
2018-04-01T08:16:22.775Z,21376
2018-04-01T08:17:24.158Z,19456
2018-04-01T08:18:25.525Z,20512
2018-04-01T08:19:26.882Z,21248
2018-04-01T08:20:28.240Z,21248
2018-04-01T08:21:29.602Z,20480
2018-04-01T08:22:30.967Z,19648
2018-04-01T08:23:32.325Z,21632
2018-04-01T08:24:33.689Z,19424
2018-04-01T08:25:35.056Z,16412
2018-04-01T08:26:36.419Z,13960
2018-04-01T08:27:37.786Z,12924
2018-04-01T08:28:39.185Z,12208
2018-04-01T08:29:40.499Z,11636
2018-04-01T08:30:41.867Z,10608
2018-04-01T08:31:43.222Z,9968
2018-04-01T08:32:44.602Z,9992
2018-04-01T08:33:45.968Z,10788
2018-04-01T08:34:47.331Z,13476
2018-04-01T08:35:48.696Z,16024
2018-04-01T08:36:50.068Z,18336
2018-04-01T08:37:51.435Z,18240
2018-04-01T08:38:52.791Z,15304
2018-04-01T08:39:54.154Z,12216
2018-04-01T08:40:55.523Z,11048
2018-04-01T08:41:56.879Z,9656
2018-04-01T08:42:58.249Z,8128
2018-04-01T08:43:59.610Z,8528
2018-04-01T08:45:00.980Z,7296
2018-04-01T08:46:02.341Z,5992
2018-04-01T08:47:03.699Z,6320
2018-04-01T08:48:05.061Z,5976
2018-04-01T08:49:06.430Z,6444
2018-04-01T08:50:07.785Z,9080
2018-04-01T08:51:09.142Z,12420
2018-04-01T08:52:10.496Z,8552
2018-04-01T08:53:11.884Z,10668
2018-04-01T08:54:13.226Z,12024
2018-04-01T08:55:14.593Z,10116
2018-04-01T08:56:15.949Z,8956
2018-04-01T08:57:17.313Z,7708
2018-04-01T08:58:18.670Z,5840
2018-04-01T08:59:20.054Z,5824
2018-04-01T09:00:21.399Z,8316
2018-04-01T09:01:22.770Z,10548
2018-04-01T09:02:24.151Z,9612
2018-04-01T09:03:25.513Z,9444
2018-04-01T09:04:26.876Z,9308
2018-04-01T09:05:28.231Z,10480
2018-04-01T09:06:29.604Z,11012
2018-04-01T09:07:30.958Z,10768
2018-04-01T09:08:32.317Z,8568
2018-04-01T09:09:33.679Z,8776
2018-04-01T09:10:35.035Z,9856
2018-04-01T09:11:36.603Z,9348
2018-04-01T09:12:37.957Z,11128
2018-04-01T09:13:39.314Z,11748
2018-04-01T09:14:40.673Z,9708
2018-04-01T09:15:42.045Z,9308
2018-04-01T09:16:43.406Z,9320
2018-04-01T09:17:44.765Z,9124
2018-04-01T09:18:46.121Z,9068
2018-04-01T09:19:47.477Z,7536
2018-04-01T09:20:48.841Z,6228
2018-04-01T09:21:50.195Z,7460
2018-04-01T09:22:51.563Z,8864
2018-04-01T09:23:52.914Z,8700
2018-04-01T09:24:54.354Z,8824
2018-04-01T09:25:55.737Z,8648
2018-04-01T09:26:57.153Z,8260
2018-04-01T09:27:58.521Z,8304
2018-04-01T09:28:59.888Z,8896
2018-04-01T09:30:01.242Z,8184
2018-04-01T09:31:02.598Z,8116
2018-04-01T09:32:03.959Z,7108
2018-04-01T09:33:05.314Z,6100
2018-04-01T09:34:06.676Z,5592
2018-04-01T09:35:08.025Z,6264
2018-04-01T09:36:09.381Z,6592
2018-04-01T09:37:10.741Z,7116
2018-04-01T09:38:12.108Z,8576
2018-04-01T09:39:13.629Z,8984
2018-04-01T09:40:15.043Z,11048
2018-04-01T09:41:16.676Z,10288
2018-04-01T09:42:18.117Z,10928
2018-04-01T09:43:19.579Z,13324
2018-04-01T09:44:21.048Z,15064
2018-04-01T09:45:22.433Z,19648
2018-04-01T09:46:23.840Z,22400
2018-04-01T09:47:25.214Z,24096
2018-04-01T09:48:26.582Z,24320
2018-04-01T09:49:27.937Z,23776
2018-04-01T09:50:29.318Z,22688
2018-04-01T09:51:30.668Z,21824
2018-04-01T09:52:32.058Z,21216
2018-04-01T09:53:33.422Z,20928
2018-04-01T09:54:34.788Z,20928
2018-04-01T09:55:36.144Z,20640
2018-04-01T09:56:37.513Z,21088
2018-04-01T09:57:38.870Z,22656
2018-04-01T09:58:40.228Z,24672
2018-04-01T09:59:41.593Z,26176
2018-04-01T10:00:42.949Z,28288
2018-04-01T10:01:44.308Z,29088
2018-04-01T10:02:45.671Z,32800
2018-04-01T10:03:47.033Z,37600
2018-04-01T10:04:48.397Z,41568
2018-04-01T10:05:49.769Z,43968
2018-04-01T10:06:51.122Z,44448
2018-04-01T10:07:52.482Z,42400
2018-04-01T10:08:53.847Z,41728
2018-04-01T10:09:55.203Z,41888
2018-04-01T10:10:56.575Z,40960
2018-04-01T10:11:57.945Z,40928
2018-04-01T10:12:59.304Z,44096
2018-04-01T10:14:00.672Z,49152
2018-04-01T10:15:02.034Z,75424
2018-04-01T10:16:03.393Z,59072
2018-04-01T10:17:04.758Z,54720
2018-04-01T10:18:06.115Z,55264
2018-04-01T10:19:07.483Z,41216
2018-04-01T10:20:08.911Z,34176
2018-04-01T10:21:10.228Z,32672
2018-04-01T10:22:11.579Z,28544
2018-04-01T10:23:12.939Z,20800
2018-04-01T10:24:14.295Z,15088
2018-04-01T10:25:15.654Z,12276
2018-04-01T10:26:17.029Z,10204
2018-04-01T10:27:18.396Z,9076
2018-04-01T10:28:19.755Z,8640
2018-04-01T10:29:21.107Z,8252
2018-04-01T10:30:22.471Z,7392
2018-04-01T10:31:23.835Z,6644
2018-04-01T10:32:25.188Z,5720
2018-04-01T10:33:26.571Z,4752
2018-04-01T10:34:27.928Z,5112
2018-04-01T10:35:29.288Z,6320
2018-04-01T10:36:30.644Z,7356
2018-04-01T10:37:32.014Z,7204
2018-04-01T10:38:33.380Z,7772
2018-04-01T10:39:34.741Z,10140
2018-04-01T10:40:36.122Z,13008
2018-04-01T10:41:37.482Z,14540
2018-04-01T10:42:38.847Z,14856
2018-04-01T10:43:40.208Z,14520
2018-04-01T10:44:41.582Z,13756
2018-04-01T10:45:42.944Z,13752
2018-04-01T10:46:44.302Z,15012
2018-04-01T10:47:45.666Z,15352
2018-04-01T10:48:47.025Z,15136
2018-04-01T10:49:48.383Z,14368
2018-04-01T10:50:49.737Z,14136
2018-04-01T10:51:51.100Z,14288
2018-04-01T10:52:52.454Z,16180
2018-04-01T10:53:53.813Z,20608
2018-04-01T10:54:55.188Z,22976
2018-04-01T10:55:56.532Z,23328
2018-04-01T10:56:57.907Z,20800
2018-04-01T10:57:59.288Z,18272
2018-04-01T10:59:00.678Z,17564
2018-04-01T11:00:02.126Z,16300
2018-04-01T11:01:03.504Z,16104
2018-04-01T11:02:04.864Z,18336
2018-04-01T11:03:06.282Z,18304
2018-04-01T11:04:07.677Z,15632
2018-04-01T11:05:09.116Z,12152
2018-04-01T11:06:10.558Z,13008
2018-04-01T11:07:11.957Z,14752
2018-04-01T11:08:13.446Z,15124
2018-04-01T11:09:14.820Z,16572
2018-04-01T11:10:16.261Z,17144
2018-04-01T11:11:17.627Z,16220
2018-04-01T11:12:19.051Z,16116
2018-04-01T11:13:20.444Z,19296
2018-04-01T11:14:21.903Z,20960
2018-04-01T11:15:23.290Z,19936
2018-04-01T11:16:24.751Z,18368
2018-04-01T11:17:26.156Z,17236
2018-04-01T11:18:27.651Z,14212
2018-04-01T11:19:29.009Z,13856
2018-04-01T11:20:30.470Z,16100
2018-04-01T11:21:31.875Z,18272
2018-04-01T11:22:33.343Z,19456
2018-04-01T11:23:34.781Z,20480
2018-04-01T11:24:36.198Z,21280
2018-04-01T11:25:37.557Z,21984
2018-04-01T11:26:39.054Z,19872
2018-04-01T11:27:40.429Z,19136
2018-04-01T11:28:41.896Z,15912
2018-04-01T11:29:43.263Z,11080
2018-04-01T11:30:44.727Z,9772
2018-04-01T11:31:46.090Z,9584
2018-04-01T11:32:47.546Z,10660
2018-04-01T11:33:48.944Z,11396
2018-04-01T11:34:50.416Z,11264
2018-04-01T11:35:51.768Z,12048
2018-04-01T11:36:53.198Z,12696
2018-04-01T11:37:54.566Z,14852
2018-04-01T11:38:55.953Z,17396
2018-04-01T11:39:57.313Z,18720
2018-04-01T11:40:58.683Z,21152
2018-04-01T11:42:00.067Z,23680
2018-04-01T11:43:01.428Z,25696
2018-04-01T11:44:02.800Z,26464
2018-04-01T11:45:04.164Z,27264
2018-04-01T11:46:05.526Z,29408
2018-04-01T11:47:06.885Z,30144
2018-04-01T11:48:08.253Z,26944
2018-04-01T11:49:09.723Z,23232
2018-04-01T11:50:11.090Z,20128
2018-04-01T11:51:12.466Z,17392
2018-04-01T11:52:13.871Z,16448
2018-04-01T11:53:15.205Z,14720
2018-04-01T11:54:16.596Z,14256
2018-04-01T11:55:17.952Z,16004
2018-04-01T11:56:19.312Z,15172
2018-04-01T11:57:20.695Z,12852
2018-04-01T11:58:22.066Z,11888
2018-04-01T11:59:23.511Z,12220
2018-04-01T12:00:24.931Z,13720
2018-04-01T12:01:26.292Z,15784
2018-04-01T12:02:27.673Z,16660
2018-04-01T12:03:29.038Z,16212
2018-04-01T12:04:30.397Z,14868
2018-04-01T12:05:31.761Z,13580
2018-04-01T12:06:33.129Z,11916
2018-04-01T12:07:34.517Z,11584
2018-04-01T12:08:35.884Z,11844
2018-04-01T12:09:37.270Z,12428
2018-04-01T12:10:38.659Z,12800
2018-04-01T12:11:40.068Z,11808
2018-04-01T12:12:41.395Z,10400
2018-04-01T12:13:42.767Z,9208
2018-04-01T12:14:44.122Z,9312
2018-04-01T12:15:45.487Z,10144
2018-04-01T12:16:46.838Z,11512
2018-04-01T12:17:48.219Z,12324
2018-04-01T12:18:49.605Z,11208
2018-04-01T12:19:50.950Z,8768
2018-04-01T12:20:52.308Z,6724
2018-04-01T12:21:54.301Z,5956
2018-04-01T12:22:55.667Z,5676
2018-04-01T12:23:57.027Z,6200
2018-04-01T12:24:58.399Z,6964
2018-04-01T12:25:59.778Z,7388
2018-04-01T12:27:01.146Z,7588
2018-04-01T12:28:02.527Z,7500
2018-04-01T12:29:03.894Z,6972
2018-04-01T12:30:05.259Z,5924
2018-04-01T12:31:06.624Z,5180
2018-04-01T12:32:07.979Z,4776
2018-04-01T12:33:09.454Z,4600
2018-04-01T12:34:10.760Z,4200
2018-04-01T12:35:12.182Z,3664
2018-04-01T12:36:13.626Z,3296
2018-04-01T12:37:15.005Z,3096
2018-04-01T12:38:16.419Z,3920
2018-04-01T12:39:17.843Z,6568
2018-04-01T12:40:19.251Z,11476
2018-04-01T12:41:20.637Z,19360
2018-04-01T12:42:22.038Z,24096
2018-04-01T12:43:23.475Z,20928
2018-04-01T12:44:24.834Z,15768
2018-04-01T12:45:26.204Z,15436
2018-04-01T12:46:27.564Z,16772
2018-04-01T12:47:28.932Z,20480
2018-04-01T12:48:30.314Z,22976
2018-04-01T12:49:31.673Z,22272
2018-04-01T12:50:33.046Z,21024
2018-04-01T12:51:34.387Z,19520
2018-04-01T12:52:35.742Z,14680
2018-04-01T12:53:37.102Z,10520
2018-04-01T12:54:38.467Z,8728
2018-04-01T12:55:39.814Z,10596
2018-04-01T12:56:41.188Z,14200
2018-04-01T12:57:42.542Z,14868
2018-04-01T12:58:43.910Z,15160
2018-04-01T12:59:45.256Z,15084
2018-04-01T13:00:46.640Z,18080
2018-04-01T13:01:48.011Z,26624
2018-04-01T13:02:49.361Z,32832
2018-04-01T13:03:50.727Z,38496
2018-04-01T13:04:52.096Z,39296
2018-04-01T13:05:53.462Z,36704
2018-04-01T13:06:54.825Z,34272
2018-04-01T13:07:56.224Z,27968
2018-04-01T13:08:57.589Z,22432
2018-04-01T13:09:58.947Z,18688
2018-04-01T13:11:00.350Z,14668
2018-04-01T13:12:01.713Z,12164
2018-04-01T13:13:03.083Z,10880
2018-04-01T13:14:04.453Z,10512
2018-04-01T13:15:05.824Z,10408
2018-04-01T13:16:07.210Z,10636
2018-04-01T13:17:08.619Z,9492
2018-04-01T13:18:09.945Z,8392
2018-04-01T13:19:11.291Z,8092
2018-04-01T13:20:12.666Z,7196
2018-04-01T13:21:14.022Z,7428
2018-04-01T13:22:15.393Z,7396
2018-04-01T13:23:16.743Z,6288
2018-04-01T13:24:18.108Z,5268
2018-04-01T13:25:19.456Z,4856
2018-04-01T13:26:20.853Z,4668
2018-04-01T13:27:22.215Z,4656
2018-04-01T13:28:23.567Z,4652
2018-04-01T13:29:24.895Z,5132
2018-04-01T13:30:26.266Z,6344
2018-04-01T13:31:27.631Z,7092
2018-04-01T13:32:28.986Z,8152
2018-04-01T13:33:31.156Z,10244
2018-04-01T13:34:32.520Z,13032
2018-04-01T13:35:33.902Z,14120
2018-04-01T13:36:35.262Z,14156
2018-04-01T13:37:36.647Z,12852
2018-04-01T13:38:38.025Z,10448
2018-04-01T13:39:39.402Z,8464
2018-04-01T13:40:40.776Z,6776
2018-04-01T13:41:42.173Z,5416
2018-04-01T13:42:43.539Z,4700
2018-04-01T13:43:44.922Z,3992
2018-04-01T13:44:46.285Z,2956
2018-04-01T13:45:47.652Z,2080
2018-04-01T13:46:49.034Z,1952
2018-04-01T13:47:50.505Z,2832
2018-04-01T13:48:52.032Z,4260
2018-04-01T13:49:53.511Z,4488
2018-04-01T13:50:55.187Z,4900
2018-04-01T13:51:56.632Z,5304
2018-04-01T13:52:58.248Z,6576
2018-04-01T13:53:59.805Z,7776
2018-04-01T13:55:01.233Z,8720
2018-04-01T13:56:02.603Z,10336
2018-04-01T13:57:04.009Z,12448
2018-04-01T13:58:05.382Z,14388
2018-04-01T13:59:06.742Z,15904